Terminal Aerodrome Forecast
Issued by NWS

Current Version | Previous Version | Text Only | Print | Product List | Glossary Off
Versions: 1 2 3 4 5 6 7 8 9 10 11 12 13 14 15 16 17 18 19 20 21 22 23

000
FTUS41 KRNK 201137 AAD
TAFLWB
TAF AMD
KLWB 201137Z 2012/2112 00000KT 2SM BR BKN008
      TEMPO 2012/2013 1/4SM FG VV001
     FM201400 30004KT P6SM VCSH BKN050
     FM202300 00000KT P6SM SCT120
     FM210900 00000KT 2SM BR SCT060=

USA.gov is the U.S. government's official web portal to all federal, state and local government web resources and services.